createdAt,value
2023-02-15T00:01:37.155Z,8.74
2023-02-15T00:04:05.564Z,8.64
2023-02-15T00:06:33.316Z,8.58
2023-02-15T00:09:01.223Z,8.60
2023-02-15T00:11:40.632Z,8.56
2023-02-15T00:14:12.741Z,8.55
2023-02-15T00:16:41.751Z,8.54
2023-02-15T00:19:10.193Z,8.53
2023-02-15T00:21:38.992Z,8.60
2023-02-15T00:24:09.330Z,8.59
2023-02-15T00:26:37.152Z,8.44
2023-02-15T00:29:04.596Z,8.68
2023-02-15T00:31:33.470Z,8.61
2023-02-15T00:34:04.768Z,8.52
2023-02-15T00:36:32.617Z,8.61
2023-02-15T00:39:00.107Z,8.51
2023-02-15T00:41:27.513Z,8.58
2023-02-15T00:43:54.869Z,8.53
2023-02-15T00:46:22.216Z,8.40
2023-02-15T00:48:49.514Z,8.50
2023-02-15T00:51:18.178Z,8.43
2023-02-15T00:53:45.665Z,8.26
2023-02-15T00:56:14.169Z,8.16
2023-02-15T00:58:41.453Z,8.06
2023-02-15T01:01:15.773Z,8.13
2023-02-15T01:03:43.661Z,8.29
2023-02-15T01:06:11.993Z,8.21
2023-02-15T01:08:39.740Z,8.17
2023-02-15T01:11:11.855Z,8.19
2023-02-15T01:13:40.188Z,8.11
2023-02-15T01:16:07.870Z,8.04
2023-02-15T01:18:35.960Z,8.15
2023-02-15T01:21:14.840Z,8.28
2023-02-15T01:23:44.776Z,8.17
2023-02-15T01:26:14.236Z,8.18
2023-02-15T01:28:44.212Z,8.12
2023-02-15T01:31:14.702Z,8.21
2023-02-15T01:33:42.778Z,8.30
2023-02-15T01:36:10.928Z,8.26
2023-02-15T01:38:40.938Z,8.35
2023-02-15T01:41:27.331Z,8.08
2023-02-15T01:43:57.889Z,8.02
2023-02-15T01:46:33.772Z,8.08
2023-02-15T01:49:04.951Z,7.86
2023-02-15T01:51:34.687Z,7.89
2023-02-15T01:54:08.761Z,7.95
2023-02-15T01:56:38.446Z,8.02
2023-02-15T01:59:10.317Z,8.25
2023-02-15T02:01:38.670Z,8.10
2023-02-15T02:04:13.124Z,8.17
2023-02-15T02:06:40.480Z,8.19
2023-02-15T02:09:08.548Z,8.11
2023-02-15T02:11:36.108Z,7.93
2023-02-15T02:14:04.772Z,7.92
2023-02-15T02:16:50.752Z,7.89
2023-02-15T02:19:20.973Z,7.98
2023-02-15T02:22:00.614Z,7.94
2023-02-15T02:25:10.083Z,7.94
2023-02-15T02:28:08.012Z,7.76
2023-02-15T02:31:09.361Z,7.68
2023-02-15T02:33:44.909Z,7.69
2023-02-15T02:36:43.232Z,7.70
2023-02-15T02:39:42.140Z,7.73
2023-02-15T02:42:30.577Z,7.58
2023-02-15T02:45:09.816Z,7.66
2023-02-15T02:47:58.737Z,7.56
2023-02-15T02:50:30.508Z,7.55
2023-02-15T02:52:59.439Z,7.53
2023-02-15T02:55:33.388Z,7.51
2023-02-15T02:58:09.388Z,7.59
2023-02-15T03:00:40.681Z,7.56
2023-02-15T03:03:12.818Z,7.52
2023-02-15T03:05:43.041Z,7.50
2023-02-15T03:08:11.099Z,7.55
2023-02-15T03:10:41.028Z,7.47
2023-02-15T03:13:08.876Z,7.60
2023-02-15T03:15:57.954Z,7.59
2023-02-15T03:18:29.850Z,7.39
2023-02-15T03:20:58.815Z,7.33
2023-02-15T03:23:27.633Z,7.40
2023-02-15T03:26:02.013Z,7.35
2023-02-15T03:28:41.495Z,7.55
2023-02-15T03:31:10.050Z,7.46
2023-02-15T03:33:40.181Z,7.48
2023-02-15T03:36:07.498Z,7.48
2023-02-15T03:38:44.575Z,7.44
2023-02-15T03:41:12.787Z,7.40
2023-02-15T03:43:53.278Z,7.41
2023-02-15T03:47:10.130Z,7.37
2023-02-15T03:49:46.638Z,7.29
2023-02-15T03:52:15.899Z,7.34
2023-02-15T03:54:44.468Z,7.27
2023-02-15T03:57:38.303Z,7.33
2023-02-15T04:00:32.406Z,7.33
2023-02-15T04:03:23.988Z,7.16
2023-02-15T04:05:51.629Z,7.17
2023-02-15T04:08:19.076Z,7.23
2023-02-15T04:10:57.160Z,7.09
2023-02-15T04:13:32.737Z,7.19
2023-02-15T04:16:07.634Z,7.17
2023-02-15T04:19:00.893Z,7.28
2023-02-15T04:21:49.528Z,7.24
2023-02-15T04:24:35.577Z,7.15
2023-02-15T04:27:03.419Z,7.11
2023-02-15T04:29:31.227Z,7.09
2023-02-15T04:32:00.581Z,7.08
2023-02-15T04:34:27.968Z,7.09
2023-02-15T04:36:55.482Z,7.06
2023-02-15T04:39:22.817Z,7.01
2023-02-15T04:41:50.121Z,6.79
2023-02-15T04:44:17.372Z,6.64
2023-02-15T04:46:44.691Z,6.61
2023-02-15T04:49:12.021Z,6.70
2023-02-15T04:51:39.317Z,6.74
2023-02-15T04:54:06.717Z,6.82
2023-02-15T04:56:35.829Z,6.86
2023-02-15T04:59:03.177Z,6.96
2023-02-15T05:01:30.615Z,6.67
2023-02-15T05:03:58.079Z,6.85
2023-02-15T05:06:25.536Z,6.85
2023-02-15T05:08:52.868Z,6.87
2023-02-15T05:11:20.388Z,6.93
2023-02-15T05:13:47.682Z,6.82
2023-02-15T05:16:15.264Z,6.59
2023-02-15T05:18:42.595Z,6.74
2023-02-15T05:21:09.912Z,6.77
2023-02-15T05:23:37.385Z,6.78
2023-02-15T05:26:26.881Z,6.77
2023-02-15T05:28:54.204Z,6.86
2023-02-15T05:31:23.366Z,6.97
2023-02-15T05:33:50.917Z,6.83
2023-02-15T05:36:18.260Z,6.84
2023-02-15T05:38:45.622Z,6.64
2023-02-15T05:41:12.918Z,6.77
2023-02-15T05:43:40.498Z,6.69
2023-02-15T05:46:08.275Z,6.80
2023-02-15T05:48:35.836Z,6.59
2023-02-15T05:51:12.383Z,6.47
2023-02-15T05:53:40.476Z,6.35
2023-02-15T05:56:10.186Z,6.36
2023-02-15T05:58:40.011Z,6.51
2023-02-15T06:01:18.146Z,6.40
2023-02-15T06:03:47.495Z,6.62
2023-02-15T06:06:14.839Z,6.67
2023-02-15T06:08:42.633Z,6.71
2023-02-15T06:11:10.377Z,6.57
2023-02-15T06:13:38.937Z,6.35
2023-02-15T06:16:07.717Z,6.41
2023-02-15T06:18:35.222Z,6.29
2023-02-15T06:21:02.562Z,6.22
2023-02-15T06:23:29.857Z,6.03
2023-02-15T06:25:57.096Z,6.04
2023-02-15T06:28:26.329Z,5.93
2023-02-15T06:30:53.844Z,6.20
2023-02-15T06:33:21.301Z,6.05
2023-02-15T06:35:48.826Z,6.14
2023-02-15T06:38:16.050Z,6.19
2023-02-15T06:40:43.307Z,6.20
2023-02-15T06:43:10.616Z,6.18
2023-02-15T06:45:38.008Z,6.25
2023-02-15T06:48:07.943Z,6.29
2023-02-15T06:50:35.367Z,6.17
2023-02-15T06:53:02.770Z,5.98
2023-02-15T06:55:30.508Z,6.21
2023-02-15T06:57:58.253Z,6.03
2023-02-15T07:00:25.691Z,5.95
2023-02-15T07:02:57.010Z,6.06
2023-02-15T07:05:25.527Z,5.87
2023-02-15T07:07:52.781Z,5.96
2023-02-15T07:10:20.060Z,6.04
2023-02-15T07:12:47.458Z,6.05
2023-02-15T07:15:17.421Z,6.29
2023-02-15T07:17:44.796Z,6.25
2023-02-15T07:20:17.463Z,6.01
2023-02-15T07:22:44.904Z,6.02
2023-02-15T07:25:13.165Z,6.33
2023-02-15T07:27:41.389Z,6.36
2023-02-15T07:30:12.325Z,6.35
2023-02-15T07:32:59.675Z,6.67
2023-02-15T07:35:26.904Z,6.39
2023-02-15T07:37:55.037Z,6.15
2023-02-15T07:40:24.331Z,6.05
2023-02-15T07:42:55.965Z,6.25
2023-02-15T07:45:23.672Z,6.34
2023-02-15T07:47:50.997Z,6.50
2023-02-15T07:50:18.468Z,6.39
2023-02-15T07:52:45.827Z,6.41
2023-02-15T07:55:13.920Z,6.41
2023-02-15T07:57:48.318Z,6.52
2023-02-15T08:00:26.001Z,6.39
2023-02-15T08:03:15.245Z,6.40
2023-02-15T08:05:44.421Z,6.82
2023-02-15T08:08:30.914Z,6.68
2023-02-15T08:11:26.861Z,6.54
2023-02-15T08:14:08.690Z,6.74
2023-02-15T08:16:49.925Z,6.77
2023-02-15T08:19:22.779Z,6.83
2023-02-15T08:21:54.510Z,6.87
2023-02-15T08:24:23.551Z,6.55
2023-02-15T08:26:52.208Z,6.80
2023-02-15T08:29:22.333Z,6.78
2023-02-15T08:31:50.593Z,7.18
2023-02-15T08:34:19.936Z,7.06
2023-02-15T08:36:47.420Z,10.68
2023-02-15T08:39:15.641Z,8.67
2023-02-15T08:41:45.160Z,7.88
2023-02-15T08:44:12.574Z,7.65
2023-02-15T08:46:42.595Z,7.62
2023-02-15T08:49:10.642Z,7.84
2023-02-15T08:51:39.597Z,7.49
2023-02-15T08:54:09.968Z,7.51
2023-02-15T08:56:39.660Z,7.39
2023-02-15T08:59:08.929Z,7.31
2023-02-15T09:01:36.718Z,7.29
2023-02-15T09:04:06.431Z,7.40
2023-02-15T09:06:34.251Z,7.36
2023-02-15T09:09:02.011Z,7.31
2023-02-15T09:11:31.109Z,7.26
2023-02-15T09:14:01.195Z,7.54
2023-02-15T09:16:31.672Z,7.44
2023-02-15T09:18:59.596Z,7.76
2023-02-15T09:21:27.570Z,7.68
2023-02-15T09:24:00.851Z,7.46
2023-02-15T09:26:30.662Z,7.35
2023-02-15T09:29:00.987Z,7.55
2023-02-15T09:31:31.022Z,7.69
2023-02-15T09:33:59.102Z,7.76
2023-02-15T09:36:29.183Z,7.90
2023-02-15T09:39:11.914Z,7.83
2023-02-15T09:42:16.671Z,7.60
2023-02-15T09:44:59.268Z,7.71
2023-02-15T09:47:26.518Z,7.71
2023-02-15T09:50:14.456Z,7.72
2023-02-15T09:52:41.811Z,8.00
2023-02-15T09:55:23.445Z,8.07
2023-02-15T09:58:13.797Z,8.17
2023-02-15T10:01:06.093Z,8.02
2023-02-15T10:03:51.900Z,8.08
2023-02-15T10:06:43.299Z,8.48
2023-02-15T10:09:26.107Z,8.62
2023-02-15T10:12:09.677Z,9.00
2023-02-15T10:14:51.661Z,8.81
2023-02-15T10:17:21.667Z,8.87
2023-02-15T10:20:01.275Z,9.01
2023-02-15T10:22:57.698Z,9.37
2023-02-15T10:25:24.865Z,9.24
2023-02-15T10:27:52.413Z,9.13
2023-02-15T10:30:25.211Z,9.19
2023-02-15T10:32:58.622Z,9.20
2023-02-15T10:35:41.223Z,9.22
2023-02-15T10:38:23.786Z,9.37
2023-02-15T10:41:07.244Z,9.37
2023-02-15T10:43:51.806Z,9.50
2023-02-15T10:46:34.621Z,9.38
2023-02-15T10:49:04.982Z,9.37
2023-02-15T10:52:08.835Z,9.57
2023-02-15T10:54:57.962Z,9.60
2023-02-15T10:57:40.190Z,9.77
2023-02-15T11:00:15.798Z,9.79
2023-02-15T11:02:53.200Z,9.91
2023-02-15T11:05:51.246Z,10.00
2023-02-15T11:08:19.001Z,9.94
2023-02-15T11:10:52.564Z,10.08
2023-02-15T11:13:21.902Z,9.99
2023-02-15T11:15:59.153Z,9.95
2023-02-15T11:18:33.409Z,10.12
2023-02-15T11:21:40.134Z,10.16
2023-02-15T11:24:19.255Z,10.69
2023-02-15T11:27:03.623Z,10.93
2023-02-15T11:29:46.314Z,10.87
2023-02-15T11:32:25.383Z,10.71
2023-02-15T11:34:56.034Z,10.72
2023-02-15T11:38:12.277Z,10.79
2023-02-15T11:41:05.443Z,10.90
2023-02-15T11:43:41.244Z,10.90
2023-02-15T11:46:12.425Z,11.08
2023-02-15T11:48:40.608Z,11.17
2023-02-15T11:51:13.869Z,11.04
2023-02-15T11:53:41.445Z,11.55
2023-02-15T11:56:15.517Z,11.27
2023-02-15T11:58:46.878Z,11.19
2023-02-15T12:01:45.236Z,11.57
2023-02-15T12:04:47.460Z,11.42
2023-02-15T12:07:20.049Z,11.51
2023-02-15T12:10:17.508Z,11.40
2023-02-15T12:12:45.111Z,11.63
2023-02-15T12:15:13.785Z,11.73
2023-02-15T12:17:53.105Z,11.94
2023-02-15T12:20:20.556Z,11.96
2023-02-15T12:22:51.905Z,11.86
2023-02-15T12:25:43.121Z,12.11
2023-02-15T12:28:32.011Z,12.08
2023-02-15T12:31:00.230Z,12.23
2023-02-15T12:33:31.488Z,12.22
2023-02-15T12:36:02.386Z,12.08
2023-02-15T12:38:30.545Z,12.20
2023-02-15T12:41:19.099Z,12.33
2023-02-15T12:43:46.552Z,12.57
2023-02-15T12:46:22.092Z,12.76
2023-02-15T12:49:07.612Z,12.45
2023-02-15T12:51:59.501Z,12.43
2023-02-15T12:54:35.526Z,12.40
2023-02-15T12:57:22.154Z,12.58
2023-02-15T13:00:04.264Z,12.79
2023-02-15T13:02:43.824Z,12.91
2023-02-15T13:05:14.644Z,12.94
2023-02-15T13:07:53.079Z,13.07
2023-02-15T13:10:42.185Z,13.16
2023-02-15T13:13:21.791Z,13.03
2023-02-15T13:15:51.980Z,12.99
2023-02-15T13:18:41.174Z,13.27
2023-02-15T13:21:19.499Z,13.31
2023-02-15T13:23:54.885Z,13.60
2023-02-15T13:26:23.888Z,13.42
2023-02-15T13:28:55.463Z,13.39
2023-02-15T13:31:26.490Z,13.29
2023-02-15T13:34:14.251Z,13.38
2023-02-15T13:37:29.433Z,13.55
2023-02-15T13:40:08.835Z,13.48
2023-02-15T13:42:42.071Z,13.51
2023-02-15T13:45:14.313Z,13.33
2023-02-15T13:48:09.882Z,13.10
2023-02-15T13:50:58.333Z,13.15
2023-02-15T13:53:43.915Z,13.35
2023-02-15T13:56:33.526Z,13.45
2023-02-15T13:59:14.577Z,13.09
2023-02-15T14:01:47.684Z,13.24
2023-02-15T14:04:31.480Z,13.26
2023-02-15T14:07:17.462Z,13.27
2023-02-15T14:09:48.664Z,13.48
2023-02-15T14:12:34.662Z,13.67
2023-02-15T14:15:14.438Z,13.70
2023-02-15T14:17:54.668Z,13.49
2023-02-15T14:20:40.538Z,13.45
2023-02-15T14:23:31.149Z,13.56
2023-02-15T14:26:22.320Z,13.66
2023-02-15T14:29:17.421Z,13.77
2023-02-15T14:31:49.342Z,13.78
2023-02-15T14:34:43.484Z,13.88
2023-02-15T14:37:12.568Z,13.64
2023-02-15T14:40:08.066Z,13.82
2023-02-15T14:42:46.950Z,13.55
2023-02-15T14:45:27.469Z,13.65
2023-02-15T14:48:34.780Z,13.63
2023-02-15T14:51:02.548Z,13.51
2023-02-15T14:53:33.190Z,13.48
2023-02-15T14:56:21.836Z,13.84
2023-02-15T14:58:55.326Z,13.88
2023-02-15T15:01:30.571Z,13.72
2023-02-15T15:04:09.371Z,13.91
2023-02-15T15:06:38.790Z,13.91
2023-02-15T15:09:14.049Z,14.23
2023-02-15T15:11:52.134Z,14.24
2023-02-15T15:14:34.735Z,14.13
2023-02-15T15:17:04.748Z,14.03
2023-02-15T15:19:52.027Z,14.16
2023-02-15T15:22:21.342Z,14.12
2023-02-15T15:24:50.463Z,14.23
2023-02-15T15:27:44.097Z,14.18
2023-02-15T15:30:14.633Z,14.24
2023-02-15T15:32:57.760Z,14.20
2023-02-15T15:36:02.876Z,14.31
2023-02-15T15:38:54.676Z,14.42
2023-02-15T15:41:44.738Z,14.48
2023-02-15T15:44:51.012Z,14.58
2023-02-15T15:47:41.316Z,14.61
2023-02-15T15:50:13.380Z,14.66
2023-02-15T15:52:43.697Z,14.67
2023-02-15T15:55:23.273Z,14.62
2023-02-15T15:57:53.901Z,14.68
2023-02-15T16:00:36.586Z,14.96
2023-02-15T16:03:04.122Z,14.93
2023-02-15T16:05:39.709Z,14.96
2023-02-15T16:08:07.241Z,15.02
2023-02-15T16:10:37.021Z,14.92
2023-02-15T16:13:06.326Z,15.06
2023-02-15T16:15:45.621Z,15.12
2023-02-15T16:18:17.293Z,15.09
2023-02-15T16:21:03.127Z,15.15
2023-02-15T16:23:46.293Z,14.98
2023-02-15T16:26:32.369Z,14.61
2023-02-15T16:28:59.686Z,14.16
2023-02-15T16:31:27.148Z,14.14
2023-02-15T16:33:55.959Z,14.17
2023-02-15T16:36:30.261Z,14.14
2023-02-15T16:38:57.564Z,14.18
2023-02-15T16:41:28.198Z,14.07
2023-02-15T16:43:58.731Z,14.21
2023-02-15T16:46:32.172Z,14.07
2023-02-15T16:49:03.233Z,14.06
2023-02-15T16:51:32.598Z,13.99
2023-02-15T16:54:07.182Z,13.90
2023-02-15T16:56:35.183Z,13.88
2023-02-15T16:59:03.333Z,13.98
2023-02-15T17:01:32.718Z,14.04
2023-02-15T17:04:22.969Z,14.00
2023-02-15T17:07:20.039Z,13.86
2023-02-15T17:09:57.416Z,13.70
2023-02-15T17:12:56.389Z,13.94
2023-02-15T17:15:37.712Z,13.99
2023-02-15T17:18:22.610Z,13.59
2023-02-15T17:20:52.544Z,13.67
2023-02-15T17:23:29.341Z,13.67
2023-02-15T17:25:57.283Z,13.75
2023-02-15T17:28:30.525Z,13.67
2023-02-15T17:30:59.212Z,13.45
2023-02-15T17:33:37.707Z,13.22
2023-02-15T17:36:25.898Z,13.42
2023-02-15T17:38:58.885Z,13.15
2023-02-15T17:41:27.452Z,12.95
2023-02-15T17:43:54.926Z,13.04
2023-02-15T17:46:22.938Z,12.96
2023-02-15T17:48:57.234Z,12.89
2023-02-15T17:51:24.595Z,12.94
2023-02-15T17:54:10.637Z,12.96
2023-02-15T17:56:38.884Z,12.83
2023-02-15T17:59:07.701Z,12.92
2023-02-15T18:01:54.743Z,12.80
2023-02-15T18:04:40.674Z,12.93
2023-02-15T18:07:28.641Z,12.30
2023-02-15T18:10:14.509Z,12.11
2023-02-15T18:12:42.638Z,12.09
2023-02-15T18:15:12.706Z,12.01
2023-02-15T18:17:43.444Z,12.25
2023-02-15T18:20:24.337Z,12.34
2023-02-15T18:22:52.092Z,12.48
2023-02-15T18:25:21.365Z,12.43
2023-02-15T18:27:48.786Z,12.54
2023-02-15T18:30:19.705Z,12.55
2023-02-15T18:32:48.757Z,12.53
2023-02-15T18:35:17.651Z,12.51
2023-02-15T18:37:46.367Z,12.43
2023-02-15T18:40:18.284Z,12.55
2023-02-15T18:42:47.977Z,12.58
2023-02-15T18:45:25.159Z,12.48
2023-02-15T18:47:52.560Z,12.50
2023-02-15T18:50:21.148Z,12.41
2023-02-15T18:52:51.526Z,12.40
2023-02-15T18:55:21.731Z,12.18
2023-02-15T18:57:49.586Z,12.43
2023-02-15T19:00:21.543Z,12.50
2023-02-15T19:02:48.997Z,12.48
2023-02-15T19:05:18.039Z,12.44
2023-02-15T19:07:48.463Z,12.32
2023-02-15T19:10:18.849Z,12.30
2023-02-15T19:12:46.702Z,12.40
2023-02-15T19:15:18.186Z,12.50
2023-02-15T19:17:46.768Z,12.32
2023-02-15T19:20:22.815Z,12.19
2023-02-15T19:22:51.621Z,12.11
2023-02-15T19:25:26.812Z,12.13
2023-02-15T19:27:54.977Z,12.02
2023-02-15T19:30:30.719Z,11.90
2023-02-15T19:32:59.552Z,12.15
2023-02-15T19:35:30.344Z,11.99
2023-02-15T19:37:59.763Z,12.11
2023-02-15T19:40:30.440Z,12.25
2023-02-15T19:42:58.226Z,12.10
2023-02-15T19:45:28.068Z,12.10
2023-02-15T19:47:55.793Z,12.18
2023-02-15T19:50:25.640Z,12.05
2023-02-15T19:52:53.506Z,11.97
2023-02-15T19:55:29.581Z,12.10
2023-02-15T19:57:58.232Z,11.98
2023-02-15T20:00:33.371Z,11.97
2023-02-15T20:03:06.290Z,12.10
2023-02-15T20:05:38.291Z,11.89
2023-02-15T20:08:15.611Z,11.80
2023-02-15T20:10:44.184Z,11.64
2023-02-15T20:13:16.102Z,11.91
2023-02-15T20:15:44.629Z,11.94
2023-02-15T20:18:12.579Z,11.93
2023-02-15T20:20:57.958Z,11.90
2023-02-15T20:23:31.566Z,11.96
2023-02-15T20:26:00.838Z,12.07
2023-02-15T20:28:31.543Z,11.93
2023-02-15T20:30:59.395Z,12.00
2023-02-15T20:33:26.730Z,12.01
2023-02-15T20:35:54.202Z,12.13
2023-02-15T20:38:29.926Z,12.03
2023-02-15T20:41:20.037Z,12.10
2023-02-15T20:43:51.619Z,12.04
2023-02-15T20:46:19.177Z,12.09
2023-02-15T20:48:46.431Z,12.27
2023-02-15T20:51:21.873Z,12.25
2023-02-15T20:53:50.277Z,12.34
2023-02-15T20:56:23.546Z,12.29
2023-02-15T20:58:52.141Z,12.05
2023-02-15T21:01:22.901Z,11.90
2023-02-15T21:03:50.871Z,11.88
2023-02-15T21:06:18.382Z,11.77
2023-02-15T21:08:46.752Z,11.80
2023-02-15T21:11:23.303Z,11.86
2023-02-15T21:13:50.530Z,11.96
2023-02-15T21:16:21.379Z,12.01
2023-02-15T21:18:53.278Z,12.08
2023-02-15T21:21:26.592Z,11.89
2023-02-15T21:23:55.448Z,12.11
2023-02-15T21:26:23.411Z,11.83
2023-02-15T21:28:51.562Z,12.11
2023-02-15T21:31:21.853Z,11.96
2023-02-15T21:33:49.442Z,11.99
2023-02-15T21:36:19.991Z,12.04
2023-02-15T21:38:48.645Z,11.84
2023-02-15T21:41:36.510Z,12.16
2023-02-15T21:44:38.126Z,12.02
2023-02-15T21:47:24.822Z,11.99
2023-02-15T21:49:53.195Z,12.13
2023-02-15T21:52:24.246Z,12.20
2023-02-15T21:54:52.069Z,12.13
2023-02-15T21:57:22.582Z,12.04
2023-02-15T21:59:50.280Z,11.98
2023-02-15T22:02:36.043Z,11.77
2023-02-15T22:05:28.469Z,11.65
2023-02-15T22:07:57.543Z,11.45
2023-02-15T22:10:30.555Z,11.55
2023-02-15T22:13:02.717Z,11.37
2023-02-15T22:15:39.260Z,11.33
2023-02-15T22:18:07.674Z,11.24
2023-02-15T22:20:42.256Z,11.40
2023-02-15T22:23:13.201Z,11.21
2023-02-15T22:25:41.411Z,11.20
2023-02-15T22:28:19.135Z,11.34
2023-02-15T22:30:46.641Z,11.38
2023-02-15T22:33:33.723Z,11.22
2023-02-15T22:36:01.305Z,11.27
2023-02-15T22:38:28.750Z,11.20
2023-02-15T22:40:58.212Z,11.07
2023-02-15T22:43:40.057Z,11.10
2023-02-15T22:46:15.406Z,11.17
2023-02-15T22:48:44.256Z,10.91
2023-02-15T22:51:16.058Z,10.70
2023-02-15T22:53:43.443Z,10.59
2023-02-15T22:56:18.299Z,10.58
2023-02-15T22:58:48.403Z,10.78
2023-02-15T23:01:30.635Z,10.73
2023-02-15T23:03:58.094Z,10.82
2023-02-15T23:06:25.383Z,10.89
2023-02-15T23:08:52.670Z,10.84
2023-02-15T23:11:20.229Z,10.77
2023-02-15T23:13:48.978Z,10.66
2023-02-15T23:16:17.613Z,10.55
2023-02-15T23:18:46.292Z,10.00
2023-02-15T23:21:26.320Z,10.18
2023-02-15T23:23:56.410Z,10.19
2023-02-15T23:26:27.466Z,10.23
2023-02-15T23:28:56.037Z,9.99
2023-02-15T23:31:33.816Z,9.99
2023-02-15T23:34:02.993Z,10.07
2023-02-15T23:36:33.540Z,10.11
2023-02-15T23:39:39.742Z,10.12
2023-02-15T23:42:16.303Z,10.10
2023-02-15T23:44:44.754Z,10.18
2023-02-15T23:47:20.309Z,10.15
2023-02-15T23:49:47.797Z,9.98
2023-02-15T23:52:15.297Z,10.02
2023-02-15T23:54:42.622Z,10.13
2023-02-15T23:57:10.566Z,9.98
2023-02-15T23:59:40.959Z,10.01
